sensor_id;sensor_type;location;lat;lon;timestamp;P1;durP1;ratioP1;P2;durP2;ratioP2
27925;SDS011;15267;47.838;12.128;2023-04-03T00:02:20;9.90;;;8.93;;
27925;SDS011;15267;47.838;12.128;2023-04-03T00:04:46;10.30;;;9.30;;
27925;SDS011;15267;47.838;12.128;2023-04-03T00:07:12;10.88;;;9.88;;
27925;SDS011;15267;47.838;12.128;2023-04-03T00:09:39;11.52;;;10.35;;
27925;SDS011;15267;47.838;12.128;2023-04-03T00:12:05;10.80;;;9.70;;
27925;SDS011;15267;47.838;12.128;2023-04-03T00:14:31;13.50;;;12.10;;
27925;SDS011;15267;47.838;12.128;2023-04-03T00:16:57;13.57;;;12.27;;
27925;SDS011;15267;47.838;12.128;2023-04-03T00:19:23;12.60;;;11.30;;
27925;SDS011;15267;47.838;12.128;2023-04-03T00:21:49;15.23;;;11.20;;
27925;SDS011;15267;47.838;12.128;2023-04-03T00:24:15;13.25;;;11.90;;
27925;SDS011;15267;47.838;12.128;2023-04-03T00:26:41;13.52;;;12.07;;
27925;SDS011;15267;47.838;12.128;2023-04-03T00:29:07;13.23;;;11.82;;
27925;SDS011;15267;47.838;12.128;2023-04-03T00:31:33;14.48;;;12.98;;
27925;SDS011;15267;47.838;12.128;2023-04-03T00:33:59;12.25;;;11.05;;
27925;SDS011;15267;47.838;12.128;2023-04-03T00:36:25;12.68;;;11.48;;
27925;SDS011;15267;47.838;12.128;2023-04-03T00:38:51;13.40;;;11.82;;
27925;SDS011;15267;47.838;12.128;2023-04-03T00:41:17;13.48;;;12.07;;
27925;SDS011;15267;47.838;12.128;2023-04-03T00:43:43;12.93;;;11.68;;
27925;SDS011;15267;47.838;12.128;2023-04-03T00:46:09;15.23;;;13.02;;
27925;SDS011;15267;47.838;12.128;2023-04-03T00:48:37;13.10;;;11.70;;
27925;SDS011;15267;47.838;12.128;2023-04-03T00:51:06;12.68;;;10.82;;
27925;SDS011;15267;47.838;12.128;2023-04-03T00:53:40;12.95;;;11.65;;
27925;SDS011;15267;47.838;12.128;2023-04-03T00:56:08;14.00;;;12.57;;
27925;SDS011;15267;47.838;12.128;2023-04-03T00:58:37;13.18;;;11.55;;
27925;SDS011;15267;47.838;12.128;2023-04-03T01:01:06;13.00;;;11.60;;
27925;SDS011;15267;47.838;12.128;2023-04-03T01:03:34;13.20;;;11.70;;
27925;SDS011;15267;47.838;12.128;2023-04-03T01:06:00;13.75;;;12.23;;
27925;SDS011;15267;47.838;12.128;2023-04-03T01:08:26;12.27;;;11.07;;
27925;SDS011;15267;47.838;12.128;2023-04-03T01:10:52;12.85;;;11.20;;
27925;SDS011;15267;47.838;12.128;2023-04-03T01:13:26;11.82;;;10.63;;
27925;SDS011;15267;47.838;12.128;2023-04-03T01:15:52;13.85;;;10.70;;
27925;SDS011;15267;47.838;12.128;2023-04-03T01:18:18;11.50;;;10.15;;
27925;SDS011;15267;47.838;12.128;2023-04-03T01:23:34;12.23;;;10.90;;
27925;SDS011;15267;47.838;12.128;2023-04-03T01:26:01;12.18;;;10.68;;
27925;SDS011;15267;47.838;12.128;2023-04-03T01:28:29;11.05;;;9.95;;
27925;SDS011;15267;47.838;12.128;2023-04-03T01:33:40;12.55;;;10.95;;
27925;SDS011;15267;47.838;12.128;2023-04-03T01:36:06;11.65;;;10.18;;
27925;SDS011;15267;47.838;12.128;2023-04-03T01:38:33;10.48;;;9.43;;
27925;SDS011;15267;47.838;12.128;2023-04-03T01:40:59;11.00;;;9.77;;
27925;SDS011;15267;47.838;12.128;2023-04-03T01:43:25;11.10;;;9.77;;
27925;SDS011;15267;47.838;12.128;2023-04-03T01:45:51;11.65;;;10.20;;
27925;SDS011;15267;47.838;12.128;2023-04-03T01:48:19;11.50;;;10.30;;
27925;SDS011;15267;47.838;12.128;2023-04-03T01:50:45;12.38;;;10.85;;
27925;SDS011;15267;47.838;12.128;2023-04-03T01:53:12;11.20;;;9.70;;
27925;SDS011;15267;47.838;12.128;2023-04-03T01:55:38;11.88;;;10.68;;
27925;SDS011;15267;47.838;12.128;2023-04-03T01:58:04;11.88;;;9.80;;
27925;SDS011;15267;47.838;12.128;2023-04-03T02:00:30;14.10;;;10.68;;
27925;SDS011;15267;47.838;12.128;2023-04-03T02:02:56;11.60;;;10.40;;
27925;SDS011;15267;47.838;12.128;2023-04-03T02:05:22;10.65;;;9.23;;
27925;SDS011;15267;47.838;12.128;2023-04-03T02:07:49;9.48;;;8.48;;
27925;SDS011;15267;47.838;12.128;2023-04-03T02:10:15;11.65;;;9.18;;
27925;SDS011;15267;47.838;12.128;2023-04-03T02:12:41;12.07;;;8.88;;
27925;SDS011;15267;47.838;12.128;2023-04-03T02:15:07;10.93;;;8.70;;
27925;SDS011;15267;47.838;12.128;2023-04-03T02:17:34;9.70;;;8.70;;
27925;SDS011;15267;47.838;12.128;2023-04-03T02:20:00;10.30;;;9.20;;
27925;SDS011;15267;47.838;12.128;2023-04-03T02:22:26;10.10;;;8.23;;
27925;SDS011;15267;47.838;12.128;2023-04-03T02:24:52;11.95;;;9.25;;
27925;SDS011;15267;47.838;12.128;2023-04-03T02:27:18;10.23;;;9.05;;
27925;SDS011;15267;47.838;12.128;2023-04-03T02:29:44;10.32;;;9.02;;
27925;SDS011;15267;47.838;12.128;2023-04-03T02:32:10;9.70;;;8.18;;
27925;SDS011;15267;47.838;12.128;2023-04-03T02:34:36;8.82;;;7.93;;
27925;SDS011;15267;47.838;12.128;2023-04-03T02:37:02;10.77;;;8.48;;
27925;SDS011;15267;47.838;12.128;2023-04-03T02:39:28;9.73;;;8.73;;
27925;SDS011;15267;47.838;12.128;2023-04-03T02:41:54;10.23;;;8.43;;
27925;SDS011;15267;47.838;12.128;2023-04-03T02:44:20;10.35;;;9.25;;
27925;SDS011;15267;47.838;12.128;2023-04-03T02:46:46;10.65;;;9.30;;
27925;SDS011;15267;47.838;12.128;2023-04-03T02:49:12;9.63;;;8.73;;
27925;SDS011;15267;47.838;12.128;2023-04-03T02:51:38;11.15;;;9.30;;
27925;SDS011;15267;47.838;12.128;2023-04-03T02:54:04;12.32;;;9.43;;
27925;SDS011;15267;47.838;12.128;2023-04-03T02:56:30;10.38;;;9.25;;
27925;SDS011;15267;47.838;12.128;2023-04-03T02:58:56;11.40;;;9.50;;
27925;SDS011;15267;47.838;12.128;2023-04-03T03:01:22;10.55;;;8.77;;
27925;SDS011;15267;47.838;12.128;2023-04-03T03:03:48;9.88;;;8.88;;
27925;SDS011;15267;47.838;12.128;2023-04-03T03:06:15;12.25;;;9.00;;
27925;SDS011;15267;47.838;12.128;2023-04-03T03:08:41;10.13;;;9.13;;
27925;SDS011;15267;47.838;12.128;2023-04-03T03:11:08;10.95;;;9.85;;
27925;SDS011;15267;47.838;12.128;2023-04-03T03:13:34;13.25;;;9.57;;
27925;SDS011;15267;47.838;12.128;2023-04-03T03:16:00;12.50;;;9.23;;
27925;SDS011;15267;47.838;12.128;2023-04-03T03:18:28;10.15;;;9.02;;
27925;SDS011;15267;47.838;12.128;2023-04-03T03:20:55;10.50;;;9.40;;
27925;SDS011;15267;47.838;12.128;2023-04-03T03:23:21;10.38;;;9.27;;
27925;SDS011;15267;47.838;12.128;2023-04-03T03:25:48;11.27;;;9.60;;
27925;SDS011;15267;47.838;12.128;2023-04-03T03:28:14;11.32;;;9.40;;
27925;SDS011;15267;47.838;12.128;2023-04-03T03:30:40;10.32;;;9.30;;
27925;SDS011;15267;47.838;12.128;2023-04-03T03:33:06;12.10;;;10.02;;
27925;SDS011;15267;47.838;12.128;2023-04-03T03:35:32;11.38;;;10.00;;
27925;SDS011;15267;47.838;12.128;2023-04-03T03:37:58;13.90;;;9.38;;
27925;SDS011;15267;47.838;12.128;2023-04-03T03:40:24;10.60;;;9.10;;
27925;SDS011;15267;47.838;12.128;2023-04-03T03:42:50;11.05;;;9.52;;
27925;SDS011;15267;47.838;12.128;2023-04-03T03:45:16;13.18;;;9.77;;
27925;SDS011;15267;47.838;12.128;2023-04-03T03:47:42;11.88;;;9.18;;
27925;SDS011;15267;47.838;12.128;2023-04-03T03:50:08;11.80;;;10.00;;
27925;SDS011;15267;47.838;12.128;2023-04-03T03:52:34;12.00;;;9.52;;
27925;SDS011;15267;47.838;12.128;2023-04-03T03:55:00;10.63;;;9.13;;
27925;SDS011;15267;47.838;12.128;2023-04-03T03:57:26;11.40;;;10.25;;
27925;SDS011;15267;47.838;12.128;2023-04-03T03:59:53;13.55;;;10.73;;
27925;SDS011;15267;47.838;12.128;2023-04-03T04:02:20;13.55;;;10.63;;
27925;SDS011;15267;47.838;12.128;2023-04-03T04:04:46;14.73;;;11.55;;
27925;SDS011;15267;47.838;12.128;2023-04-03T04:07:12;12.35;;;10.43;;
27925;SDS011;15267;47.838;12.128;2023-04-03T04:09:38;13.32;;;9.95;;
27925;SDS011;15267;47.838;12.128;2023-04-03T04:12:04;11.48;;;10.18;;
27925;SDS011;15267;47.838;12.128;2023-04-03T04:14:30;10.68;;;9.57;;
27925;SDS011;15267;47.838;12.128;2023-04-03T04:16:56;12.55;;;10.30;;
27925;SDS011;15267;47.838;12.128;2023-04-03T04:19:22;11.63;;;9.32;;
27925;SDS011;15267;47.838;12.128;2023-04-03T04:21:49;9.75;;;8.65;;
27925;SDS011;15267;47.838;12.128;2023-04-03T04:24:15;10.25;;;9.10;;
27925;SDS011;15267;47.838;12.128;2023-04-03T04:26:41;10.27;;;8.70;;
27925;SDS011;15267;47.838;12.128;2023-04-03T04:29:08;9.90;;;8.20;;
27925;SDS011;15267;47.838;12.128;2023-04-03T04:31:34;10.02;;;7.45;;
27925;SDS011;15267;47.838;12.128;2023-04-03T04:34:00;9.23;;;8.32;;
27925;SDS011;15267;47.838;12.128;2023-04-03T04:36:26;9.32;;;7.70;;
27925;SDS011;15267;47.838;12.128;2023-04-03T04:38:52;9.40;;;8.23;;
27925;SDS011;15267;47.838;12.128;2023-04-03T04:41:21;9.40;;;7.63;;
27925;SDS011;15267;47.838;12.128;2023-04-03T04:43:48;10.27;;;7.72;;
27925;SDS011;15267;47.838;12.128;2023-04-03T04:46:14;9.85;;;8.23;;
27925;SDS011;15267;47.838;12.128;2023-04-03T04:48:40;8.90;;;7.47;;
27925;SDS011;15267;47.838;12.128;2023-04-03T04:51:06;8.82;;;7.78;;
27925;SDS011;15267;47.838;12.128;2023-04-03T04:53:32;8.77;;;7.88;;
27925;SDS011;15267;47.838;12.128;2023-04-03T04:55:59;10.40;;;8.05;;
27925;SDS011;15267;47.838;12.128;2023-04-03T04:58:24;9.63;;;8.15;;
27925;SDS011;15267;47.838;12.128;2023-04-03T05:01:01;8.65;;;7.70;;
27925;SDS011;15267;47.838;12.128;2023-04-03T05:03:27;9.32;;;7.30;;
27925;SDS011;15267;47.838;12.128;2023-04-03T05:05:53;9.73;;;8.15;;
27925;SDS011;15267;47.838;12.128;2023-04-03T05:08:19;9.77;;;7.80;;
27925;SDS011;15267;47.838;12.128;2023-04-03T05:10:45;8.75;;;7.85;;
27925;SDS011;15267;47.838;12.128;2023-04-03T05:13:11;9.02;;;7.93;;
27925;SDS011;15267;47.838;12.128;2023-04-03T05:15:37;7.65;;;6.85;;
27925;SDS011;15267;47.838;12.128;2023-04-03T05:18:03;9.70;;;8.07;;
27925;SDS011;15267;47.838;12.128;2023-04-03T05:20:30;10.80;;;7.70;;
27925;SDS011;15267;47.838;12.128;2023-04-03T05:22:56;9.10;;;7.88;;
27925;SDS011;15267;47.838;12.128;2023-04-03T05:25:22;11.57;;;9.00;;
27925;SDS011;15267;47.838;12.128;2023-04-03T05:27:48;8.95;;;7.72;;
27925;SDS011;15267;47.838;12.128;2023-04-03T05:30:14;9.80;;;7.40;;
27925;SDS011;15267;47.838;12.128;2023-04-03T05:32:40;11.50;;;7.90;;
27925;SDS011;15267;47.838;12.128;2023-04-03T05:35:07;12.05;;;8.77;;
27925;SDS011;15267;47.838;12.128;2023-04-03T05:37:33;7.97;;;4.53;;
27925;SDS011;15267;47.838;12.128;2023-04-03T05:39:59;11.75;;;4.63;;
27925;SDS011;15267;47.838;12.128;2023-04-03T05:42:25;9.77;;;4.30;;
27925;SDS011;15267;47.838;12.128;2023-04-03T05:44:51;8.32;;;4.53;;
27925;SDS011;15267;47.838;12.128;2023-04-03T05:47:18;6.40;;;4.35;;
27925;SDS011;15267;47.838;12.128;2023-04-03T05:49:44;8.68;;;4.40;;
27925;SDS011;15267;47.838;12.128;2023-04-03T05:52:20;5.40;;;4.20;;
27925;SDS011;15267;47.838;12.128;2023-04-03T05:54:47;6.43;;;4.57;;
27925;SDS011;15267;47.838;12.128;2023-04-03T05:57:13;7.25;;;3.92;;
27925;SDS011;15267;47.838;12.128;2023-04-03T05:59:39;6.82;;;4.30;;
27925;SDS011;15267;47.838;12.128;2023-04-03T06:02:05;9.07;;;4.38;;
27925;SDS011;15267;47.838;12.128;2023-04-03T06:04:32;5.45;;;3.42;;
27925;SDS011;15267;47.838;12.128;2023-04-03T06:06:58;5.43;;;3.83;;
27925;SDS011;15267;47.838;12.128;2023-04-03T06:09:25;4.90;;;4.20;;
27925;SDS011;15267;47.838;12.128;2023-04-03T06:11:52;4.97;;;4.47;;
27925;SDS011;15267;47.838;12.128;2023-04-03T06:14:18;5.65;;;4.70;;
27925;SDS011;15267;47.838;12.128;2023-04-03T06:16:44;5.63;;;5.13;;
27925;SDS011;15267;47.838;12.128;2023-04-03T06:19:11;6.97;;;5.13;;
27925;SDS011;15267;47.838;12.128;2023-04-03T06:21:37;6.00;;;5.40;;
27925;SDS011;15267;47.838;12.128;2023-04-03T06:24:04;6.88;;;5.60;;
27925;SDS011;15267;47.838;12.128;2023-04-03T06:26:30;7.72;;;6.15;;
27925;SDS011;15267;47.838;12.128;2023-04-03T06:28:56;7.25;;;5.88;;
27925;SDS011;15267;47.838;12.128;2023-04-03T06:31:22;5.68;;;4.90;;
27925;SDS011;15267;47.838;12.128;2023-04-03T06:33:48;6.47;;;5.40;;
27925;SDS011;15267;47.838;12.128;2023-04-03T06:36:15;6.40;;;5.32;;
27925;SDS011;15267;47.838;12.128;2023-04-03T06:38:44;5.70;;;4.95;;
27925;SDS011;15267;47.838;12.128;2023-04-03T06:41:10;5.65;;;5.05;;
27925;SDS011;15267;47.838;12.128;2023-04-03T06:43:36;6.10;;;5.53;;
27925;SDS011;15267;47.838;12.128;2023-04-03T06:46:02;6.32;;;5.20;;
27925;SDS011;15267;47.838;12.128;2023-04-03T06:48:28;5.93;;;5.32;;
27925;SDS011;15267;47.838;12.128;2023-04-03T06:50:54;6.40;;;5.63;;
27925;SDS011;15267;47.838;12.128;2023-04-03T06:53:22;7.45;;;6.55;;
27925;SDS011;15267;47.838;12.128;2023-04-03T06:55:48;7.18;;;6.35;;
27925;SDS011;15267;47.838;12.128;2023-04-03T06:58:14;7.10;;;6.28;;
27925;SDS011;15267;47.838;12.128;2023-04-03T07:00:42;6.93;;;5.70;;
27925;SDS011;15267;47.838;12.128;2023-04-03T07:03:08;6.78;;;5.90;;
27925;SDS011;15267;47.838;12.128;2023-04-03T07:05:34;10.18;;;8.05;;
27925;SDS011;15267;47.838;12.128;2023-04-03T07:07:59;13.40;;;10.52;;
27925;SDS011;15267;47.838;12.128;2023-04-03T07:10:25;8.57;;;6.65;;
27925;SDS011;15267;47.838;12.128;2023-04-03T07:12:51;7.78;;;5.93;;
27925;SDS011;15267;47.838;12.128;2023-04-03T07:15:17;7.35;;;5.53;;
27925;SDS011;15267;47.838;12.128;2023-04-03T07:17:43;5.30;;;4.80;;
27925;SDS011;15267;47.838;12.128;2023-04-03T07:20:09;6.35;;;5.03;;
27925;SDS011;15267;47.838;12.128;2023-04-03T07:22:36;6.65;;;5.93;;
27925;SDS011;15267;47.838;12.128;2023-04-03T07:25:02;6.22;;;5.63;;
27925;SDS011;15267;47.838;12.128;2023-04-03T07:27:29;6.60;;;5.72;;
27925;SDS011;15267;47.838;12.128;2023-04-03T07:29:55;7.28;;;5.30;;
27925;SDS011;15267;47.838;12.128;2023-04-03T07:32:21;7.38;;;4.97;;
27925;SDS011;15267;47.838;12.128;2023-04-03T07:34:47;4.68;;;4.10;;
27925;SDS011;15267;47.838;12.128;2023-04-03T07:37:13;7.10;;;4.97;;
27925;SDS011;15267;47.838;12.128;2023-04-03T07:39:39;6.50;;;5.80;;
27925;SDS011;15267;47.838;12.128;2023-04-03T07:42:06;5.47;;;4.55;;
27925;SDS011;15267;47.838;12.128;2023-04-03T07:44:33;5.45;;;4.95;;
27925;SDS011;15267;47.838;12.128;2023-04-03T07:46:59;7.47;;;5.43;;
27925;SDS011;15267;47.838;12.128;2023-04-03T07:49:25;6.68;;;5.75;;
27925;SDS011;15267;47.838;12.128;2023-04-03T07:51:52;5.78;;;5.18;;
27925;SDS011;15267;47.838;12.128;2023-04-03T07:54:18;6.28;;;4.70;;
27925;SDS011;15267;47.838;12.128;2023-04-03T07:56:44;7.45;;;5.55;;
27925;SDS011;15267;47.838;12.128;2023-04-03T07:59:10;6.28;;;4.55;;
27925;SDS011;15267;47.838;12.128;2023-04-03T08:01:36;5.80;;;5.15;;
27925;SDS011;15267;47.838;12.128;2023-04-03T08:04:02;6.50;;;5.50;;
27925;SDS011;15267;47.838;12.128;2023-04-03T08:06:28;21.38;;;12.27;;
27925;SDS011;15267;47.838;12.128;2023-04-03T08:08:57;23.83;;;12.65;;
27925;SDS011;15267;47.838;12.128;2023-04-03T08:11:23;7.38;;;5.20;;
27925;SDS011;15267;47.838;12.128;2023-04-03T08:13:51;5.38;;;4.88;;
27925;SDS011;15267;47.838;12.128;2023-04-03T08:16:18;7.20;;;5.22;;
27925;SDS011;15267;47.838;12.128;2023-04-03T08:18:45;7.55;;;5.35;;
27925;SDS011;15267;47.838;12.128;2023-04-03T08:21:12;8.77;;;5.03;;
27925;SDS011;15267;47.838;12.128;2023-04-03T08:23:39;7.32;;;5.40;;
27925;SDS011;15267;47.838;12.128;2023-04-03T08:26:15;7.10;;;5.45;;
27925;SDS011;15267;47.838;12.128;2023-04-03T08:28:42;5.55;;;4.78;;
27925;SDS011;15267;47.838;12.128;2023-04-03T08:31:09;6.30;;;4.43;;
27925;SDS011;15267;47.838;12.128;2023-04-03T08:33:35;5.07;;;4.45;;
27925;SDS011;15267;47.838;12.128;2023-04-03T08:36:03;5.68;;;4.60;;
27925;SDS011;15267;47.838;12.128;2023-04-03T08:38:29;7.60;;;5.10;;
27925;SDS011;15267;47.838;12.128;2023-04-03T08:41:09;5.80;;;4.30;;
27925;SDS011;15267;47.838;12.128;2023-04-03T08:43:40;6.22;;;5.45;;
27925;SDS011;15267;47.838;12.128;2023-04-03T08:46:09;6.82;;;4.78;;
27925;SDS011;15267;47.838;12.128;2023-04-03T08:48:39;6.70;;;5.03;;
27925;SDS011;15267;47.838;12.128;2023-04-03T08:51:10;8.70;;;5.00;;
27925;SDS011;15267;47.838;12.128;2023-04-03T08:56:07;5.07;;;4.53;;
27925;SDS011;15267;47.838;12.128;2023-04-03T08:58:48;5.75;;;4.45;;
27925;SDS011;15267;47.838;12.128;2023-04-03T09:01:33;7.43;;;5.70;;
27925;SDS011;15267;47.838;12.128;2023-04-03T09:04:05;5.70;;;4.88;;
27925;SDS011;15267;47.838;12.128;2023-04-03T09:06:34;5.25;;;4.65;;
27925;SDS011;15267;47.838;12.128;2023-04-03T09:09:06;5.65;;;4.55;;
27925;SDS011;15267;47.838;12.128;2023-04-03T09:11:42;5.47;;;4.85;;
27925;SDS011;15267;47.838;12.128;2023-04-03T09:14:14;6.40;;;4.70;;
27925;SDS011;15267;47.838;12.128;2023-04-03T09:19:41;5.05;;;4.55;;
27925;SDS011;15267;47.838;12.128;2023-04-03T09:22:00;5.88;;;4.70;;
27925;SDS011;15267;47.838;12.128;2023-04-03T09:24:28;7.22;;;4.32;;
27925;SDS011;15267;47.838;12.128;2023-04-03T09:27:04;5.53;;;4.43;;
27925;SDS011;15267;47.838;12.128;2023-04-03T09:29:31;5.80;;;4.53;;
27925;SDS011;15267;47.838;12.128;2023-04-03T09:31:59;5.70;;;4.25;;
27925;SDS011;15267;47.838;12.128;2023-04-03T09:34:26;4.22;;;3.83;;
27925;SDS011;15267;47.838;12.128;2023-04-03T09:36:56;6.72;;;3.90;;
27925;SDS011;15267;47.838;12.128;2023-04-03T09:39:27;4.82;;;4.05;;
27925;SDS011;15267;47.838;12.128;2023-04-03T09:41:55;5.18;;;4.20;;
27925;SDS011;15267;47.838;12.128;2023-04-03T09:44:22;5.00;;;4.50;;
27925;SDS011;15267;47.838;12.128;2023-04-03T09:46:49;5.28;;;4.30;;
27925;SDS011;15267;47.838;12.128;2023-04-03T09:49:15;4.55;;;3.47;;
27925;SDS011;15267;47.838;12.128;2023-04-03T09:51:41;5.45;;;3.95;;
27925;SDS011;15267;47.838;12.128;2023-04-03T09:56:53;4.10;;;3.70;;
27925;SDS011;15267;47.838;12.128;2023-04-03T09:59:20;4.75;;;3.30;;
27925;SDS011;15267;47.838;12.128;2023-04-03T10:02:00;4.38;;;3.47;;
27925;SDS011;15267;47.838;12.128;2023-04-03T10:04:26;3.80;;;3.40;;
27925;SDS011;15267;47.838;12.128;2023-04-03T10:07:02;4.47;;;3.25;;
27925;SDS011;15267;47.838;12.128;2023-04-03T10:09:29;4.15;;;3.72;;
27925;SDS011;15267;47.838;12.128;2023-04-03T10:14:29;4.88;;;4.40;;
27925;SDS011;15267;47.838;12.128;2023-04-03T10:22:02;7.13;;;5.00;;
27925;SDS011;15267;47.838;12.128;2023-04-03T10:24:33;8.13;;;4.70;;
27925;SDS011;15267;47.838;12.128;2023-04-03T10:32:08;6.22;;;4.68;;
27925;SDS011;15267;47.838;12.128;2023-04-03T10:34:37;4.82;;;4.32;;
27925;SDS011;15267;47.838;12.128;2023-04-03T10:39:46;5.38;;;4.20;;
27925;SDS011;15267;47.838;12.128;2023-04-03T10:47:20;4.35;;;3.90;;
27925;SDS011;15267;47.838;12.128;2023-04-03T10:52:37;6.85;;;3.70;;
27925;SDS011;15267;47.838;12.128;2023-04-03T10:57:31;4.13;;;3.72;;
27925;SDS011;15267;47.838;12.128;2023-04-03T11:03:00;6.95;;;3.70;;
27925;SDS011;15267;47.838;12.128;2023-04-03T11:07:52;4.32;;;3.47;;
27925;SDS011;15267;47.838;12.128;2023-04-03T11:10:23;3.80;;;3.10;;
27925;SDS011;15267;47.838;12.128;2023-04-03T11:12:52;4.22;;;2.97;;
27925;SDS011;15267;47.838;12.128;2023-04-03T11:15:19;4.82;;;2.83;;
27925;SDS011;15267;47.838;12.128;2023-04-03T11:17:55;3.28;;;2.63;;
27925;SDS011;15267;47.838;12.128;2023-04-03T11:20:26;3.72;;;2.60;;
27925;SDS011;15267;47.838;12.128;2023-04-03T11:25:40;3.80;;;2.40;;
27925;SDS011;15267;47.838;12.128;2023-04-03T11:28:09;3.22;;;2.40;;
27925;SDS011;15267;47.838;12.128;2023-04-03T11:35:43;6.95;;;4.60;;
27925;SDS011;15267;47.838;12.128;2023-04-03T11:38:12;4.90;;;4.00;;
27925;SDS011;15267;47.838;12.128;2023-04-03T11:40:40;4.72;;;4.20;;
27925;SDS011;15267;47.838;12.128;2023-04-03T11:43:28;5.85;;;4.45;;
27925;SDS011;15267;47.838;12.128;2023-04-03T11:50:56;4.10;;;3.70;;
27925;SDS011;15267;47.838;12.128;2023-04-03T11:55:53;4.07;;;3.20;;
27925;SDS011;15267;47.838;12.128;2023-04-03T11:58:38;4.32;;;2.95;;
27925;SDS011;15267;47.838;12.128;2023-04-03T12:13:36;5.63;;;4.43;;
27925;SDS011;15267;47.838;12.128;2023-04-03T12:16:03;7.22;;;4.30;;
27925;SDS011;15267;47.838;12.128;2023-04-03T12:21:14;7.82;;;5.38;;
27925;SDS011;15267;47.838;12.128;2023-04-03T12:26:44;5.97;;;3.92;;
27925;SDS011;15267;47.838;12.128;2023-04-03T12:37:01;7.03;;;4.22;;
27925;SDS011;15267;47.838;12.128;2023-04-03T12:39:42;5.72;;;4.07;;
27925;SDS011;15267;47.838;12.128;2023-04-03T12:45:16;5.18;;;3.42;;
27925;SDS011;15267;47.838;12.128;2023-04-03T12:47:43;6.13;;;3.88;;
27925;SDS011;15267;47.838;12.128;2023-04-03T12:52:47;5.75;;;4.22;;
27925;SDS011;15267;47.838;12.128;2023-04-03T12:55:19;5.45;;;4.30;;
27925;SDS011;15267;47.838;12.128;2023-04-03T12:57:46;6.65;;;4.55;;
27925;SDS011;15267;47.838;12.128;2023-04-03T13:00:45;4.82;;;4.05;;
27925;SDS011;15267;47.838;12.128;2023-04-03T13:03:05;6.65;;;4.85;;
27925;SDS011;15267;47.838;12.128;2023-04-03T13:05:31;6.22;;;4.40;;
27925;SDS011;15267;47.838;12.128;2023-04-03T13:08:02;6.30;;;4.60;;
27925;SDS011;15267;47.838;12.128;2023-04-03T13:10:29;6.50;;;4.10;;
27925;SDS011;15267;47.838;12.128;2023-04-03T13:12:57;6.85;;;4.20;;
27925;SDS011;15267;47.838;12.128;2023-04-03T13:15:25;5.90;;;4.15;;
27925;SDS011;15267;47.838;12.128;2023-04-03T13:17:52;5.70;;;4.00;;
27925;SDS011;15267;47.838;12.128;2023-04-03T13:20:20;6.32;;;4.03;;
27925;SDS011;15267;47.838;12.128;2023-04-03T13:25:16;5.18;;;4.03;;
27925;SDS011;15267;47.838;12.128;2023-04-03T13:27:42;8.73;;;4.80;;
27925;SDS011;15267;47.838;12.128;2023-04-03T13:30:29;5.65;;;4.68;;
27925;SDS011;15267;47.838;12.128;2023-04-03T13:32:55;8.27;;;4.38;;
27925;SDS011;15267;47.838;12.128;2023-04-03T13:37:55;7.97;;;5.63;;
27925;SDS011;15267;47.838;12.128;2023-04-03T13:40:21;7.45;;;5.10;;
27925;SDS011;15267;47.838;12.128;2023-04-03T13:42:57;7.28;;;4.85;;
27925;SDS011;15267;47.838;12.128;2023-04-03T13:45:25;6.28;;;4.07;;
27925;SDS011;15267;47.838;12.128;2023-04-03T13:47:54;5.68;;;3.70;;
27925;SDS011;15267;47.838;12.128;2023-04-03T13:50:32;6.03;;;3.60;;
27925;SDS011;15267;47.838;12.128;2023-04-03T13:53:02;5.15;;;3.58;;
27925;SDS011;15267;47.838;12.128;2023-04-03T13:55:29;5.28;;;3.63;;
27925;SDS011;15267;47.838;12.128;2023-04-03T13:57:57;5.13;;;3.60;;
27925;SDS011;15267;47.838;12.128;2023-04-03T14:00:28;5.80;;;3.78;;
27925;SDS011;15267;47.838;12.128;2023-04-03T14:02:55;5.00;;;3.92;;
27925;SDS011;15267;47.838;12.128;2023-04-03T14:05:21;4.53;;;4.00;;
27925;SDS011;15267;47.838;12.128;2023-04-03T14:07:49;5.90;;;3.70;;
27925;SDS011;15267;47.838;12.128;2023-04-03T14:10:16;4.38;;;3.40;;
27925;SDS011;15267;47.838;12.128;2023-04-03T14:12:41;6.97;;;4.00;;
27925;SDS011;15267;47.838;12.128;2023-04-03T14:15:30;7.35;;;4.10;;
27925;SDS011;15267;47.838;12.128;2023-04-03T14:17:54;6.22;;;3.92;;
27925;SDS011;15267;47.838;12.128;2023-04-03T14:20:22;5.13;;;4.07;;
27925;SDS011;15267;47.838;12.128;2023-04-03T14:22:48;4.40;;;3.45;;
27925;SDS011;15267;47.838;12.128;2023-04-03T14:25:15;6.90;;;3.90;;
27925;SDS011;15267;47.838;12.128;2023-04-03T14:27:43;5.65;;;3.53;;
27925;SDS011;15267;47.838;12.128;2023-04-03T14:30:12;8.13;;;4.20;;
27925;SDS011;15267;47.838;12.128;2023-04-03T14:32:39;5.20;;;3.60;;
27925;SDS011;15267;47.838;12.128;2023-04-03T14:35:05;4.40;;;3.60;;
27925;SDS011;15267;47.838;12.128;2023-04-03T14:37:31;5.53;;;4.03;;
27925;SDS011;15267;47.838;12.128;2023-04-03T14:39:58;6.45;;;4.53;;
27925;SDS011;15267;47.838;12.128;2023-04-03T14:42:29;5.75;;;3.47;;
27925;SDS011;15267;47.838;12.128;2023-04-03T14:44:56;6.68;;;3.70;;
27925;SDS011;15267;47.838;12.128;2023-04-03T14:47:24;8.10;;;4.13;;
27925;SDS011;15267;47.838;12.128;2023-04-03T14:49:51;6.20;;;3.47;;
27925;SDS011;15267;47.838;12.128;2023-04-03T14:52:19;6.57;;;3.83;;
27925;SDS011;15267;47.838;12.128;2023-04-03T14:54:45;4.90;;;3.83;;
27925;SDS011;15267;47.838;12.128;2023-04-03T14:57:12;5.60;;;3.97;;
27925;SDS011;15267;47.838;12.128;2023-04-03T14:59:39;7.10;;;3.90;;
27925;SDS011;15267;47.838;12.128;2023-04-03T15:02:11;6.40;;;3.92;;
27925;SDS011;15267;47.838;12.128;2023-04-03T15:04:47;6.28;;;3.70;;
27925;SDS011;15267;47.838;12.128;2023-04-03T15:07:13;5.25;;;3.78;;
27925;SDS011;15267;47.838;12.128;2023-04-03T15:09:40;5.65;;;3.80;;
27925;SDS011;15267;47.838;12.128;2023-04-03T15:12:07;4.95;;;3.83;;
27925;SDS011;15267;47.838;12.128;2023-04-03T15:14:33;5.57;;;4.30;;
27925;SDS011;15267;47.838;12.128;2023-04-03T15:16:59;5.63;;;4.65;;
27925;SDS011;15267;47.838;12.128;2023-04-03T15:19:25;5.28;;;3.72;;
27925;SDS011;15267;47.838;12.128;2023-04-03T15:21:51;5.82;;;3.13;;
27925;SDS011;15267;47.838;12.128;2023-04-03T15:24:17;5.82;;;4.25;;
27925;SDS011;15267;47.838;12.128;2023-04-03T15:26:43;6.38;;;3.85;;
27925;SDS011;15267;47.838;12.128;2023-04-03T15:29:09;6.47;;;4.55;;
27925;SDS011;15267;47.838;12.128;2023-04-03T15:31:35;5.15;;;3.78;;
27925;SDS011;15267;47.838;12.128;2023-04-03T15:34:02;4.38;;;3.30;;
27925;SDS011;15267;47.838;12.128;2023-04-03T15:36:28;5.03;;;3.42;;
27925;SDS011;15267;47.838;12.128;2023-04-03T15:38:54;4.70;;;3.40;;
27925;SDS011;15267;47.838;12.128;2023-04-03T15:41:20;4.05;;;2.80;;
27925;SDS011;15267;47.838;12.128;2023-04-03T15:43:46;6.05;;;2.75;;
27925;SDS011;15267;47.838;12.128;2023-04-03T15:46:12;7.03;;;3.35;;
27925;SDS011;15267;47.838;12.128;2023-04-03T15:48:38;8.23;;;4.72;;
27925;SDS011;15267;47.838;12.128;2023-04-03T15:51:05;12.73;;;8.05;;
27925;SDS011;15267;47.838;12.128;2023-04-03T15:53:31;14.35;;;10.10;;
27925;SDS011;15267;47.838;12.128;2023-04-03T15:55:57;5.90;;;3.60;;
27925;SDS011;15267;47.838;12.128;2023-04-03T15:58:23;7.38;;;4.30;;
27925;SDS011;15267;47.838;12.128;2023-04-03T16:00:50;8.23;;;6.32;;
27925;SDS011;15267;47.838;12.128;2023-04-03T16:03:17;6.10;;;4.35;;
27925;SDS011;15267;47.838;12.128;2023-04-03T16:05:43;12.85;;;9.00;;
27925;SDS011;15267;47.838;12.128;2023-04-03T16:08:10;8.38;;;5.90;;